createdAt,value
2022-10-14T00:09:55.793Z,1.25
2022-10-14T00:19:57.394Z,1.30
2022-10-14T00:29:58.785Z,1.15
2022-10-14T00:40:01.257Z,0.82
2022-10-14T00:50:03.793Z,1.13
2022-10-14T01:00:09.688Z,0.85
2022-10-14T01:10:20.493Z,1.50
2022-10-14T01:20:40.930Z,1.25
2022-10-14T01:30:46.970Z,1.05
2022-10-14T01:40:58.826Z,1.03
2022-10-14T01:51:02.046Z,0.70
2022-10-14T02:01:06.074Z,1.20
2022-10-14T02:11:15.620Z,0.82
2022-10-14T02:21:17.182Z,0.95
2022-10-14T02:31:19.765Z,1.10
2022-10-14T02:41:23.555Z,0.88
2022-10-14T02:51:25.133Z,0.80
2022-10-14T03:01:26.706Z,0.77
2022-10-14T03:11:29.250Z,0.70
2022-10-14T03:21:37.190Z,0.80
2022-10-14T03:31:40.350Z,0.68
2022-10-14T03:42:18.488Z,0.75
2022-10-14T03:52:23.008Z,0.80
2022-10-14T04:02:35.318Z,0.80
2022-10-14T04:12:40.051Z,0.57
2022-10-14T04:22:45.645Z,0.63
2022-10-14T04:32:50.084Z,0.90
2022-10-14T04:42:58.594Z,0.77
2022-10-14T04:53:13.117Z,1.63
2022-10-14T05:03:25.260Z,2.38
2022-10-14T05:13:27.006Z,2.35
2022-10-14T05:23:34.628Z,2.65
2022-10-14T05:33:37.505Z,5.95
2022-10-14T05:43:39.247Z,3.60
2022-10-14T05:53:43.038Z,2.65
2022-10-14T06:03:50.683Z,2.55
2022-10-14T06:13:52.685Z,2.53
2022-10-14T06:23:54.311Z,1.75
2022-10-14T06:33:55.769Z,7.07
2022-10-14T06:43:57.206Z,1.33
2022-10-14T06:53:58.866Z,1.90
2022-10-14T07:04:00.276Z,1.27
2022-10-14T07:14:01.673Z,2.70
2022-10-14T07:24:03.274Z,1.83
2022-10-14T07:34:04.763Z,2.80
2022-10-14T07:44:09.182Z,2.22
2022-10-14T07:54:16.596Z,2.90
2022-10-14T08:04:18.874Z,2.75
2022-10-14T08:14:20.355Z,2.58
2022-10-14T08:24:21.806Z,2.80
2022-10-14T08:34:24.368Z,3.72
2022-10-14T08:44:39.467Z,4.38
2022-10-14T08:54:44.592Z,1.90
2022-10-14T09:04:46.038Z,2.45
2022-10-14T09:14:57.535Z,1.60
2022-10-14T09:24:59.097Z,2.90
2022-10-14T09:35:00.751Z,1.40
2022-10-14T09:45:08.779Z,2.58
2022-10-14T09:55:20.073Z,4.53
2022-10-14T10:05:21.553Z,1.92
2022-10-14T10:15:23.392Z,1.85
2022-10-14T10:25:27.184Z,3.85
2022-10-14T10:36:06.338Z,2.47
2022-10-14T10:46:15.448Z,2.42
2022-10-14T10:56:39.643Z,2.65
2022-10-14T11:07:18.546Z,1.33
2022-10-14T11:17:54.216Z,1.65
2022-10-14T11:28:11.563Z,1.38
2022-10-14T11:38:50.912Z,2.50
2022-10-14T11:49:00.421Z,1.30
2022-10-14T11:59:43.467Z,1.10
2022-10-14T12:09:49.173Z,1.50
2022-10-14T12:19:51.286Z,1.88
2022-10-14T12:29:55.107Z,2.05
2022-10-14T12:40:02.946Z,2.00
2022-10-14T12:50:27.911Z,1.92
2022-10-14T13:00:36.233Z,1.60
2022-10-14T13:10:41.706Z,1.98
2022-10-14T13:20:46.536Z,1.67
2022-10-14T13:30:58.826Z,1.85
2022-10-14T13:41:00.978Z,2.03
2022-10-14T13:51:31.595Z,2.38
2022-10-14T14:01:38.545Z,2.35
2022-10-14T14:11:45.565Z,2.08
2022-10-14T14:21:47.088Z,2.17
2022-10-14T14:42:11.494Z,2.10
2022-10-14T14:52:13.950Z,2.13
2022-10-14T15:02:17.573Z,2.28
2022-10-14T15:12:42.068Z,2.30
2022-10-14T15:22:44.646Z,2.88
2022-10-14T15:32:46.594Z,3.45
2022-10-14T15:42:48.390Z,7.32
2022-10-14T15:52:53.157Z,12.88
2022-10-14T16:02:58.316Z,11.27
2022-10-14T16:12:59.829Z,11.98
2022-10-14T16:23:04.386Z,11.68
2022-10-14T16:33:06.264Z,9.60
2022-10-14T16:43:07.776Z,14.43
2022-10-14T16:53:27.841Z,9.43
2022-10-14T17:03:29.279Z,11.75
2022-10-14T17:13:32.695Z,10.07
2022-10-14T17:23:42.502Z,10.60
2022-10-14T17:33:43.978Z,10.00
2022-10-14T17:43:49.348Z,7.30
2022-10-14T17:54:09.134Z,10.20
2022-10-14T18:04:10.784Z,7.85
2022-10-14T18:14:13.351Z,8.18
2022-10-14T18:24:14.766Z,6.40
2022-10-14T18:34:16.638Z,7.75
2022-10-14T18:44:18.223Z,7.80
2022-10-14T18:54:21.189Z,5.85
2022-10-14T19:04:24.915Z,7.18
2022-10-14T19:14:28.501Z,6.55
2022-10-14T19:24:29.974Z,6.38
2022-10-14T19:34:31.426Z,5.57
2022-10-14T19:54:39.489Z,4.40
2022-10-14T20:04:40.963Z,7.45
2022-10-14T20:14:42.403Z,5.72
2022-10-14T20:24:44.358Z,5.70
2022-10-14T20:34:45.808Z,5.28
2022-10-14T20:44:47.189Z,6.53
2022-10-14T20:54:48.599Z,5.03
2022-10-14T21:04:51.474Z,5.10
2022-10-14T21:14:52.994Z,5.00
2022-10-14T21:24:54.405Z,4.55
2022-10-14T21:34:56.042Z,6.55
2022-10-14T21:44:57.575Z,4.57
2022-10-14T21:54:59.023Z,4.65
2022-10-14T22:05:00.571Z,4.43
2022-10-14T22:25:08.870Z,3.30
2022-10-14T22:35:10.329Z,3.72
2022-10-14T22:45:12.110Z,3.90
2022-10-14T22:55:13.514Z,5.03
2022-10-14T23:05:14.900Z,3.05
2022-10-14T23:15:16.625Z,2.53
2022-10-14T23:25:18.458Z,3.20
2022-10-14T23:35:19.834Z,3.72
2022-10-14T23:45:21.275Z,4.13
2022-10-14T23:55:22.739Z,3.92
